Time;durP1;ratioP1;P1;durP2;ratioP2;P2;SDS_P1;SDS_P2;PMS_P1;PMS_P2;Temp;Humidity;BMP_temperature;BMP_pressure;BME280_temperature;BME280_humidity;BME280_pressure;Samples;Min_cycle;Max_cycle;Signal;HPM_P1;HPM_P2
2021/08/19 06:14:21;;;;;;;4.95;4.25;;;;;;;23.04;53.88;101163.75;5103039;27;21682;-67
2021/08/19 06:16:47;;;;;;;6.65;4.57;;;;;;;22.85;54.24;101166.06;5081025;28;20043;-67
2021/08/19 06:19:12;;;;;;;7.00;4.38;;;;;;;22.81;54.26;101164.78;5067172;28;20041;-68
2021/08/19 06:21:38;;;;;;;12.38;4.88;;;;;;;22.72;54.07;101155.28;5078917;28;20028;-68
2021/08/19 06:24:04;;;;;;;4.78;4.28;;;;;;;22.73;54.29;101161.41;5082933;28;20044;-68
2021/08/19 06:26:29;;;;;;;5.55;4.57;;;;;;;22.76;54.02;101166.34;5071488;28;20094;-68
2021/08/19 06:28:55;;;;;;;7.10;5.10;;;;;;;22.73;53.91;101172.03;5077029;28;20093;-68
2021/08/19 06:31:20;;;;;;;5.88;4.85;;;;;;;22.66;53.92;101148.09;5080097;28;20335;-68
2021/08/19 06:33:46;;;;;;;6.10;4.70;;;;;;;22.75;53.80;101162.88;5090596;28;20440;-68
2021/08/19 06:36:12;;;;;;;6.30;4.65;;;;;;;22.71;54.13;101155.47;5063556;28;20341;-68
2021/08/19 06:38:37;;;;;;;8.13;4.75;;;;;;;22.76;53.75;101169.00;5074506;28;20033;-68
2021/08/19 06:41:03;;;;;;;6.78;4.63;;;;;;;22.67;54.05;101154.22;5072643;28;20028;-68
2021/08/19 06:43:29;;;;;;;6.55;4.57;;;;;;;22.71;53.83;101158.97;5087857;28;20093;-68
2021/08/19 06:45:55;;;;;;;6.10;5.07;;;;;;;22.74;54.01;101163.88;5068763;28;20512;-68
2021/08/19 06:48:20;;;;;;;5.88;4.40;;;;;;;22.85;53.44;101167.91;5067140;28;20500;-68
2021/08/19 06:50:46;;;;;;;5.63;4.75;;;;;;;22.58;53.75;101129.63;5065635;28;20090;-68
2021/08/19 06:53:11;;;;;;;7.65;5.43;;;;;;;22.78;53.75;101156.34;5074132;28;20044;-68
2021/08/19 06:55:37;;;;;;;7.13;5.18;;;;;;;22.85;53.67;101171.38;5073300;28;20355;-68
2021/08/19 06:58:02;;;;;;;6.70;4.32;;;;;;;22.85;53.24;101163.41;5062649;28;20090;-68
2021/08/19 07:00:28;;;;;;;6.22;4.90;;;;;;;22.86;53.66;101172.19;5071796;28;20040;-68
2021/08/19 07:02:53;;;;;;;8.77;5.80;;;;;;;22.80;53.19;101156.97;5073781;28;20053;-68
2021/08/19 07:05:19;;;;;;;5.13;4.60;;;;;;;22.90;53.13;101160.16;5077249;28;20049;-69
2021/08/19 07:07:44;;;;;;;6.47;4.80;;;;;;;22.85;53.22;101166.06;5080181;28;20453;-68
2021/08/19 07:10:10;;;;;;;5.55;4.57;;;;;;;22.88;53.51;101170.16;5072555;28;20056;-69
2021/08/19 07:12:36;;;;;;;6.50;4.85;;;;;;;22.87;53.24;101173.84;5082177;28;21000;-68
2021/08/19 07:15:03;;;;;;;5.90;5.05;;;;;;;22.90;53.20;101176.09;5060248;28;20686;-68
2021/08/19 07:17:28;;;;;;;6.95;5.15;;;;;;;22.77;53.37;101157.34;5077200;28;20081;-68
2021/08/19 07:19:54;;;;;;;5.78;4.57;;;;;;;22.91;53.44;101177.75;5079186;28;20052;-68
2021/08/19 07:22:20;;;;;;;6.05;4.82;;;;;;;22.90;53.35;101187.53;5087010;28;20040;-68
2021/08/19 07:24:45;;;;;;;7.40;5.05;;;;;;;22.87;53.15;101171.19;5074987;28;20040;-68
2021/08/19 07:27:11;;;;;;;5.78;4.68;;;;;;;22.89;53.15;101175.28;5078601;28;20031;-68
2021/08/19 07:29:36;;;;;;;5.65;5.05;;;;;;;22.68;53.46;101140.75;5071992;28;20436;-68
2021/08/19 07:32:02;;;;;;;7.03;5.13;;;;;;;22.92;53.28;101171.41;5080027;28;20371;-68
2021/08/19 07:34:28;;;;;;;5.38;4.57;;;;;;;22.97;53.13;101181.47;5073636;28;20094;-68
2021/08/19 07:36:54;;;;;;;6.03;4.85;;;;;;;22.98;53.07;101177.78;5076180;28;20047;-68
2021/08/19 07:39:19;;;;;;;5.72;4.75;;;;;;;22.96;53.03;101185.13;5060020;28;20036;-68
2021/08/19 07:41:45;;;;;;;7.72;4.97;;;;;;;22.84;53.04;101159.09;5069374;28;20052;-68
2021/08/19 07:44:10;;;;;;;6.10;4.90;;;;;;;22.94;53.16;101184.50;5064224;28;20033;-68
2021/08/19 07:46:36;;;;;;;5.63;4.90;;;;;;;23.01;53.28;101190.72;5077802;28;20098;-68
2021/08/19 07:49:02;;;;;;;4.97;4.45;;;;;;;23.02;53.25;101184.38;5059457;28;20082;-68
2021/08/19 07:51:31;;;;;;;7.90;4.85;;;;;;;23.06;52.92;101186.44;5058578;28;20045;-68
2021/08/19 07:53:57;;;;;;;6.67;4.83;;;;;;;23.04;53.10;101190.31;5081681;28;20029;-68
2021/08/19 07:56:23;;;;;;;6.00;4.72;;;;;;;22.73;53.24;101148.16;5061781;28;20053;-68
2021/08/19 07:58:48;;;;;;;5.90;4.22;;;;;;;22.83;52.95;101152.16;5075265;28;20051;-68
2021/08/19 08:01:14;;;;;;;5.57;4.78;;;;;;;23.05;53.17;101190.13;5077970;28;20044;-68
2021/08/19 08:03:39;;;;;;;5.43;4.70;;;;;;;22.92;53.04;101174.06;5067941;28;20471;-68
2021/08/19 08:06:05;;;;;;;7.20;5.15;;;;;;;22.92;52.87;101171.41;5073818;28;20036;-68
2021/08/19 08:08:30;;;;;;;6.55;4.90;;;;;;;23.05;53.06;101192.78;5072378;28;20422;-69
2021/08/19 08:10:56;;;;;;;5.18;4.07;;;;;;;23.09;52.89;101187.91;5056910;28;20021;-68
2021/08/19 08:13:21;;;;;;;6.53;5.10;;;;;;;23.11;52.83;101189.34;5064722;28;20387;-68
2021/08/19 08:15:48;;;;;;;6.03;4.63;;;;;;;23.11;52.58;101197.31;5059095;28;20056;-68
2021/08/19 08:18:16;;;;;;;5.45;4.68;;;;;;;23.02;53.06;101181.72;5069142;28;20052;-68
2021/08/19 08:20:43;;;;;;;6.18;5.35;;;;;;;23.10;52.97;101200.97;5060974;28;20047;-68
2021/08/19 08:23:08;;;;;;;6.22;4.63;;;;;;;23.06;52.70;101199.72;5071535;28;20039;-68
2021/08/19 08:25:35;;;;;;;5.65;4.50;;;;;;;23.05;52.67;101190.13;5063629;28;20025;-68
2021/08/19 08:28:09;;;;;;;6.10;4.90;;;;;;;23.17;52.68;101203.72;5068549;28;20559;-68
2021/08/19 08:30:36;;;;;;;6.70;5.20;;;;;;;23.02;52.80;101187.03;5072126;28;20041;-68
2021/08/19 08:33:02;;;;;;;5.78;4.82;;;;;;;23.15;52.73;101208.38;5069317;28;20035;-68
2021/08/19 08:35:33;;;;;;;5.55;4.82;;;;;;;23.17;52.38;101206.38;5071452;28;20103;-68
2021/08/19 08:38:01;;;;;;;6.18;4.47;;;;;;;23.09;52.75;101204.66;5075804;28;20094;-68
2021/08/19 08:40:28;;;;;;;6.78;4.80;;;;;;;23.16;52.58;101208.22;5064518;28;20039;-69
2021/08/19 08:42:55;;;;;;;5.65;4.72;;;;;;;23.13;52.56;101210.41;5065357;28;20033;-68
2021/08/19 08:45:21;;;;;;;5.13;4.55;;;;;;;23.08;52.82;101208.31;5063432;28;20060;-68
2021/08/19 08:47:47;;;;;;;5.97;4.70;;;;;;;23.14;52.72;101217.34;5061485;28;20081;-68
2021/08/19 08:50:13;;;;;;;4.97;4.43;;;;;;;23.11;52.81;101210.59;5067049;28;20047;-68
2021/08/19 08:52:40;;;;;;;6.15;4.80;;;;;;;23.10;52.54;101213.44;5073224;28;20047;-68
2021/08/19 08:55:07;;;;;;;6.95;4.65;;;;;;;23.08;52.34;101212.81;5047610;28;20045;-68
2021/08/19 08:57:36;;;;;;;6.95;5.10;;;;;;;23.05;52.61;101200.75;5063610;28;20358;-68
2021/08/19 09:00:04;;;;;;;5.88;4.72;;;;;;;23.16;52.77;101223.28;5071729;28;20075;-70
2021/08/19 09:02:30;;;;;;;5.40;4.55;;;;;;;23.08;52.36;101207.50;5074168;28;20108;-69
2021/08/19 09:05:26;;;;;;;4.78;4.00;;;;;;;23.16;52.41;101229.47;5071402;28;20501;-70
2021/08/19 09:07:54;;;;;;;6.05;4.60;;;;;;;23.12;52.60;101214.06;5060567;28;20090;-70
2021/08/19 09:10:22;;;;;;;5.50;4.53;;;;;;;23.16;52.87;101226.81;5073195;28;20111;-71
2021/08/19 09:12:48;;;;;;;5.82;4.57;;;;;;;23.20;52.35;101232.53;5071083;28;20744;-68
2021/08/19 09:15:16;;;;;;;6.10;4.80;;;;;;;23.16;52.79;101232.13;5051030;28;20048;-68
2021/08/19 09:17:44;;;;;;;6.13;4.47;;;;;;;23.02;52.28;101195.81;5064018;28;20045;-67
2021/08/19 09:20:12;;;;;;;5.80;4.85;;;;;;;23.19;52.41;101236.22;5061436;28;20059;-68
2021/08/19 09:22:59;;;;;;;5.30;4.80;;;;;;;23.20;52.48;101237.88;5064177;28;20501;-68
2021/08/19 09:25:28;;;;;;;7.13;4.68;;;;;;;23.20;52.69;101240.53;5056524;28;20040;-68
2021/08/19 09:28:12;;;;;;;6.68;5.10;;;;;;;23.21;52.46;101237.66;5075960;28;20067;-68
2021/08/19 09:30:39;;;;;;;6.53;4.85;;;;;;;23.21;52.73;101229.69;5072723;28;20131;-68
2021/08/19 09:33:08;;;;;;;6.00;4.47;;;;;;;23.19;52.50;101234.38;5075852;28;20078;-68
2021/08/19 09:35:33;;;;;;;6.03;4.57;;;;;;;23.18;52.72;101221.28;5058914;28;20485;-68
2021/08/19 09:38:11;;;;;;;5.35;4.35;;;;;;;23.20;52.55;101230.72;5077161;28;20031;-69
2021/08/19 09:40:37;;;;;;;4.70;4.22;;;;;;;23.24;52.75;101231.13;5075415;28;20535;-68
2021/08/19 09:43:02;;;;;;;7.25;4.95;;;;;;;23.23;52.41;101224.19;5075838;28;20040;-68
2021/08/19 09:45:28;;;;;;;5.45;4.47;;;;;;;23.27;52.56;101237.91;5069912;28;20032;-69
2021/08/19 09:48:10;;;;;;;5.03;4.38;;;;;;;23.24;52.59;101231.13;5048365;28;20048;-69
2021/08/19 09:50:36;;;;;;;6.82;4.43;;;;;;;23.22;52.35;101230.50;5065849;28;20055;-70
2021/08/19 09:53:17;;;;;;;6.05;4.82;;;;;;;23.20;52.54;101230.72;5064599;28;20060;-68
2021/08/19 09:55:43;;;;;;;6.43;4.78;;;;;;;23.13;52.55;101218.38;5062525;28;20401;-68
2021/08/19 09:58:08;;;;;;;5.63;4.45;;;;;;;23.14;52.74;101222.66;5076582;28;20052;-68
2021/08/19 10:00:45;;;;;;;5.38;4.50;;;;;;;23.21;52.57;101232.34;5061057;28;20037;-68
2021/08/19 10:03:11;;;;;;;5.28;4.43;;;;;;;23.20;52.71;101233.38;5062776;28;20056;-68
2021/08/19 10:05:40;;;;;;;4.93;4.28;;;;;;;23.20;52.63;101227.22;5067461;28;20028;-68
2021/08/19 10:08:08;;;;;;;5.13;4.35;;;;;;;23.19;52.58;101236.22;5076886;28;20090;-69
2021/08/19 10:10:36;;;;;;;5.03;4.40;;;;;;;23.12;52.63;101233.50;5072961;28;20131;-69
2021/08/19 10:13:04;;;;;;;5.85;4.43;;;;;;;22.92;52.45;101192.66;5061775;28;20861;-69
2021/08/19 10:15:35;;;;;;;6.05;4.65;;;;;;;23.08;52.66;101223.44;5048808;28;20039;-68
2021/08/19 10:18:03;;;;;;;5.97;4.53;;;;;;;23.16;52.99;101242.75;5068774;28;20108;-68
2021/08/19 10:20:34;;;;;;;5.13;4.30;;;;;;;23.19;52.75;101239.69;5068638;28;20146;-68
2021/08/19 10:23:02;;;;;;;5.30;4.25;;;;;;;23.16;52.90;101252.50;5071320;28;20093;-68
2021/08/19 10:25:28;;;;;;;5.22;4.43;;;;;;;23.14;52.78;101252.72;5065569;28;20068;-69
2021/08/19 10:28:17;;;;;;;5.60;4.60;;;;;;;23.19;52.76;101250.31;5073109;28;20071;-68
2021/08/19 10:30:51;;;;;;;5.88;4.43;;;;;;;23.18;52.93;101250.50;5049087;28;20043;-68
2021/08/19 10:33:35;;;;;;;4.28;3.88;;;;;;;23.16;52.73;101256.03;5064648;28;20041;-68
2021/08/19 10:36:23;;;;;;;4.97;4.05;;;;;;;23.17;53.01;101254.19;5057505;28;20520;-68
2021/08/19 10:38:48;;;;;;;5.95;4.72;;;;;;;23.10;52.98;101248.81;5064706;28;20045;-68
2021/08/19 10:41:39;;;;;;;5.20;4.25;;;;;;;23.12;52.79;101248.59;5074247;28;20028;-68
2021/08/19 10:44:09;;;;;;;5.30;4.22;;;;;;;23.11;52.85;101252.28;5069848;28;20036;-68
2021/08/19 10:46:39;;;;;;;4.93;4.28;;;;;;;23.15;53.03;101259.66;5051217;28;20040;-68
2021/08/19 10:49:05;;;;;;;5.50;4.50;;;;;;;23.12;53.10;101248.59;5084782;28;20099;-68
2021/08/19 10:51:31;;;;;;;5.35;4.40;;;;;;;23.17;52.61;101252.34;5069486;28;20044;-69
2021/08/19 10:53:57;;;;;;;5.25;4.28;;;;;;;23.11;52.69;101246.97;5072646;28;20059;-68
2021/08/19 10:56:55;;;;;;;6.07;4.40;;;;;;;23.20;52.83;101256.47;5074480;28;20040;-69
2021/08/19 10:59:32;;;;;;;6.63;4.88;;;;;;;23.19;52.90;101250.31;5031588;28;20072;-69
2021/08/19 11:01:59;;;;;;;5.65;4.30;;;;;;;23.20;52.74;101254.63;5079248;28;20047;-69
2021/08/19 11:04:46;;;;;;;5.35;4.15;;;;;;;23.20;52.91;101254.63;5044957;28;20434;-69
2021/08/19 11:07:50;;;;;;;5.50;4.32;;;;;;;23.18;52.76;101266.47;5072919;28;20090;-69
2021/08/19 11:10:27;;;;;;;4.80;3.90;;;;;;;23.18;52.71;101259.31;5055294;28;20055;-69
2021/08/19 11:13:20;;;;;;;5.10;3.80;;;;;;;23.18;53.11;101255.84;5071837;28;20377;-69
2021/08/19 11:15:48;;;;;;;5.50;3.92;;;;;;;23.12;52.98;101243.28;5066688;28;20225;-69
2021/08/19 11:18:28;;;;;;;6.30;4.32;;;;;;;23.22;52.73;101265.06;5060898;28;20468;-69
2021/08/19 11:20:53;;;;;;;5.15;4.20;;;;;;;23.20;52.77;101265.25;5073984;28;20036;-69
2021/08/19 11:23:27;;;;;;;5.50;4.00;;;;;;;23.15;52.92;101253.53;5077249;28;20039;-69
2021/08/19 11:25:59;;;;;;;5.07;3.90;;;;;;;23.16;52.94;101253.38;5074577;28;20037;-69
2021/08/19 11:28:33;;;;;;;4.75;3.92;;;;;;;23.13;53.02;101242.28;5072365;28;20032;-68
2021/08/19 11:30:59;;;;;;;6.35;4.07;;;;;;;23.08;52.89;101239.38;5078700;28;20025;-69
2021/08/19 11:33:26;;;;;;;5.50;4.30;;;;;;;23.08;52.85;101237.53;5059566;28;20150;-68
2021/08/19 11:35:54;;;;;;;5.68;4.25;;;;;;;23.18;52.62;101261.97;5076401;28;20040;-69
2021/08/19 11:38:25;;;;;;;5.68;4.03;;;;;;;23.24;52.82;101270.19;5085816;28;20051;-68
2021/08/19 11:40:53;;;;;;;4.63;4.10;;;;;;;23.24;52.71;101271.00;5074237;28;20024;-68
2021/08/19 11:43:30;;;;;;;6.90;4.65;;;;;;;23.23;52.86;101277.31;5078931;28;20143;-68
2021/08/19 11:46:10;;;;;;;5.65;4.05;;;;;;;23.19;52.95;101263.59;5076965;28;20115;-68
2021/08/19 11:48:37;;;;;;;4.97;4.47;;;;;;;23.25;52.73;101282.44;5077593;28;20033;-68
2021/08/19 11:51:05;;;;;;;5.05;3.67;;;;;;;23.25;52.89;101280.59;5090647;28;20036;-69
2021/08/19 11:53:31;;;;;;;4.60;3.97;;;;;;;23.19;53.14;101278.72;5077102;28;20039;-68
2021/08/19 11:56:11;;;;;;;7.07;4.20;;;;;;;23.14;53.44;101281.94;5073341;28;20380;-68
2021/08/19 11:58:37;;;;;;;5.28;3.97;;;;;;;23.13;53.17;101269.66;5075353;28;20032;-68
2021/08/19 12:01:06;;;;;;;12.52;4.38;;;;;;;23.23;53.40;101281.81;5074186;28;20090;-68
2021/08/19 12:03:34;;;;;;;4.85;4.18;;;;;;;23.24;53.29;101286.13;5077509;28;20070;-68
2021/08/19 12:06:06;;;;;;;5.85;4.65;;;;;;;23.18;53.05;101280.56;5080032;28;20560;-68
2021/08/19 12:08:33;;;;;;;8.60;4.53;;;;;;;23.30;52.98;101290.66;5068312;28;20036;-72
2021/08/19 12:11:00;;;;;;;6.28;4.00;;;;;;;23.24;53.31;101288.78;5074417;28;20067;-69
2021/08/19 12:13:27;;;;;;;7.38;4.43;;;;;;;23.13;53.56;101293.56;5067848;28;20071;-69
2021/08/19 12:15:53;;;;;;;7.20;4.72;;;;;;;23.13;53.28;101293.56;5074054;28;20482;-69
2021/08/19 12:18:26;;;;;;;4.80;4.13;;;;;;;23.15;53.15;101290.72;5075587;28;20086;-69
2021/08/19 12:21:12;;;;;;;6.85;4.20;;;;;;;23.22;53.22;101304.91;5076513;28;20551;-68
2021/08/19 12:23:37;;;;;;;5.05;3.88;;;;;;;23.20;53.50;101305.09;5073661;28;20041;-69
2021/08/19 12:26:11;;;;;;;6.00;4.18;;;;;;;23.16;53.43;101316.28;5078474;28;20365;-69
2021/08/19 12:28:37;;;;;;;10.60;4.45;;;;;;;23.19;53.48;101313.25;5075248;28;20039;-68
2021/08/19 12:31:08;;;;;;;7.30;4.40;;;;;;;23.37;53.52;101318.13;5075245;28;20061;-68
2021/08/19 12:33:40;;;;;;;4.85;3.80;;;;;;;23.45;53.43;101305.50;5070785;28;20239;-68
2021/08/19 12:36:12;;;;;;;9.15;4.75;;;;;;;23.51;53.17;101312.72;5073254;28;20047;-67
2021/08/19 12:38:38;;;;;;;6.13;4.63;;;;;;;23.53;53.47;101315.19;5074357;28;20040;-68
2021/08/19 12:41:29;;;;;;;6.82;4.55;;;;;;;23.38;53.29;101323.25;5073622;28;20539;-68
2021/08/19 12:44:06;;;;;;;6.18;4.32;;;;;;;23.42;53.17;101316.53;5066743;28;20367;-68
2021/08/19 12:46:49;;;;;;;6.13;4.22;;;;;;;23.39;53.17;101319.56;5073280;28;20555;-68
2021/08/19 12:49:33;;;;;;;6.18;4.30;;;;;;;23.32;53.41;101317.84;5072249;28;20040;-68
2021/08/19 12:52:11;;;;;;;7.65;4.95;;;;;;;23.41;53.27;101322.03;5077255;28;20113;-68
2021/08/19 12:54:37;;;;;;;5.13;4.35;;;;;;;23.36;53.23;101324.47;5072741;28;20081;-68
2021/08/19 12:57:03;;;;;;;5.75;4.55;;;;;;;23.35;53.56;101336.09;5073897;28;20107;-67
2021/08/19 12:59:28;;;;;;;5.57;4.10;;;;;;;23.33;53.27;101328.28;5075608;28;20040;-68
2021/08/19 13:01:57;;;;;;;5.97;4.57;;;;;;;22.94;52.95;101264.16;5072919;28;20044;-67
2021/08/19 13:04:22;;;;;;;6.10;4.53;;;;;;;23.39;53.17;101343.50;5077215;28;20111;-68
2021/08/19 13:06:48;;;;;;;6.72;4.78;;;;;;;23.32;53.47;101333.81;5082061;28;20096;-68
2021/08/19 13:09:13;;;;;;;5.72;4.40;;;;;;;23.35;53.10;101334.25;5070983;28;20046;-68
2021/08/19 13:11:39;;;;;;;6.78;4.78;;;;;;;23.40;53.02;101341.66;5074943;28;20036;-67
2021/08/19 13:14:04;;;;;;;5.22;4.28;;;;;;;23.13;52.96;101293.56;5055959;28;20063;-67
2021/08/19 13:16:30;;;;;;;7.15;4.63;;;;;;;23.33;53.24;101340.75;5070077;28;20143;-68
2021/08/19 13:18:55;;;;;;;6.78;4.60;;;;;;;23.29;53.12;101335.00;5067473;28;20501;-68
2021/08/19 13:21:21;;;;;;;6.75;4.65;;;;;;;23.09;53.41;101305.59;5052585;28;20045;-68
2021/08/19 13:23:46;;;;;;;5.60;4.22;;;;;;;23.29;53.42;101335.00;5061632;28;20032;-67
2021/08/19 13:26:12;;;;;;;6.07;4.85;;;;;;;23.34;53.23;101345.91;5056912;28;20054;-68
2021/08/19 13:28:37;;;;;;;5.68;4.65;;;;;;;23.30;53.59;101346.47;5064247;28;20108;-68
2021/08/19 13:31:03;;;;;;;6.28;4.82;;;;;;;23.35;53.40;101341.41;5071322;28;20094;-67
2021/08/19 13:33:28;;;;;;;6.03;4.72;;;;;;;23.38;53.35;101347.16;5054937;28;20028;-68
2021/08/19 13:35:54;;;;;;;7.43;5.07;;;;;;;23.34;53.07;101339.75;5073038;28;20507;-68
2021/08/19 13:38:20;;;;;;;7.03;4.60;;;;;;;23.28;53.28;101333.38;5052656;28;20028;-68
2021/08/19 13:40:46;;;;;;;6.25;4.30;;;;;;;23.35;53.48;101350.22;5074634;28;20043;-67
2021/08/19 13:43:11;;;;;;;7.53;4.85;;;;;;;23.35;53.24;101344.06;5075076;28;20043;-68
2021/08/19 13:45:37;;;;;;;10.05;5.50;;;;;;;23.33;53.07;101333.59;5071553;28;20075;-67
2021/08/19 13:48:04;;;;;;;8.18;4.88;;;;;;;23.18;53.47;101315.09;5074121;28;20060;-67
2021/08/19 13:50:30;;;;;;;6.82;4.70;;;;;;;23.17;53.06;101308.16;5075615;28;20036;-68
2021/08/19 13:52:56;;;;;;;7.95;5.50;;;;;;;23.33;53.19;101332.78;5090131;28;20029;-68
2021/08/19 13:55:22;;;;;;;6.95;4.50;;;;;;;23.21;53.48;101316.56;5074618;28;20032;-68
2021/08/19 13:57:48;;;;;;;6.07;4.43;;;;;;;23.32;53.47;101345.25;5071656;28;20052;-67
2021/08/19 14:00:14;;;;;;;5.35;4.22;;;;;;;23.23;53.38;101330.47;5072898;28;20047;-67
2021/08/19 14:02:39;;;;;;;6.65;4.45;;;;;;;23.32;53.19;101342.59;5062050;28;20048;-68
2021/08/19 14:05:05;;;;;;;8.80;4.88;;;;;;;23.35;53.37;101354.72;5064076;28;20228;-67
2021/08/19 14:07:31;;;;;;;6.22;4.35;;;;;;;23.26;53.51;101342.53;5059764;28;20049;-67
2021/08/19 14:09:56;;;;;;;6.10;4.75;;;;;;;23.24;53.45;101337.41;5058518;28;20041;-68
2021/08/19 14:12:22;;;;;;;7.07;4.90;;;;;;;23.33;53.21;101343.41;5071346;28;20043;-68
2021/08/19 14:14:47;;;;;;;6.97;4.63;;;;;;;23.28;53.43;101349.31;5055054;28;20627;-67
2021/08/19 14:17:13;;;;;;;6.05;4.60;;;;;;;23.24;53.33;101336.59;5073598;28;20101;-67
2021/08/19 14:19:38;;;;;;;6.85;4.82;;;;;;;23.29;53.49;101344.81;5056951;28;20040;-67
2021/08/19 14:22:05;;;;;;;7.22;4.55;;;;;;;23.26;53.66;101353.16;5074345;28;20044;-67
2021/08/19 14:24:33;;;;;;;6.28;4.57;;;;;;;23.33;53.19;101351.38;5061970;28;20037;-67
2021/08/19 14:27:00;;;;;;;7.75;4.97;;;;;;;23.28;53.27;101345.81;5069805;28;20127;-67
2021/08/19 14:29:26;;;;;;;6.95;4.82;;;;;;;23.28;53.36;101351.16;5053443;28;20032;-68
2021/08/19 14:31:52;;;;;;;6.95;4.70;;;;;;;23.23;53.57;101341.09;5063568;28;20150;-68
2021/08/19 14:34:18;;;;;;;8.57;5.25;;;;;;;23.32;53.42;101349.75;5063818;28;20510;-68
2021/08/19 14:36:44;;;;;;;6.85;4.82;;;;;;;23.26;53.32;101346.03;5068598;28;20063;-67
2021/08/19 14:39:10;;;;;;;6.30;4.85;;;;;;;23.25;53.36;101344.38;5066220;28;20052;-67
2021/08/19 14:41:36;;;;;;;7.63;4.97;;;;;;;23.22;53.65;101350.06;5065714;28;20044;-68
2021/08/19 14:44:02;;;;;;;6.95;4.78;;;;;;;23.24;53.60;101355.19;5068560;28;20136;-67
2021/08/19 14:46:27;;;;;;;6.40;4.70;;;;;;;23.23;53.55;101353.56;5065940;28;20036;-67
2021/08/19 14:48:53;;;;;;;5.55;4.53;;;;;;;23.28;53.31;101357.28;5063728;28;20037;-68
2021/08/19 14:51:18;;;;;;;6.97;5.07;;;;;;;23.21;53.64;101343.94;5066788;28;20070;-67
2021/08/19 14:53:44;;;;;;;7.85;4.82;;;;;;;23.21;53.43;101357.22;5071135;28;20494;-68
2021/08/19 14:56:10;;;;;;;6.90;4.95;;;;;;;23.25;53.76;101359.50;5072598;28;20031;-67
2021/08/19 14:58:35;;;;;;;6.70;4.85;;;;;;;23.17;53.70;101347.19;5072107;28;20036;-68
2021/08/19 15:01:02;;;;;;;7.00;5.25;;;;;;;23.21;53.61;101359.88;5035176;28;20049;-68
2021/08/19 15:03:28;;;;;;;9.48;4.85;;;;;;;23.23;53.43;101370.31;5074352;28;20558;-67
2021/08/19 15:05:54;;;;;;;6.72;4.60;;;;;;;23.12;53.79;101365.50;5074746;28;20459;-68
2021/08/19 15:08:19;;;;;;;6.50;4.72;;;;;;;23.12;53.92;101362.84;5068866;28;20029;-68
2021/08/19 15:10:45;;;;;;;6.43;4.35;;;;;;;23.13;53.76;101367.13;5069852;28;20107;-68
2021/08/19 15:13:10;;;;;;;7.43;4.95;;;;;;;23.08;53.84;101373.03;5067195;28;20064;-67
2021/08/19 15:15:36;;;;;;;8.18;5.75;;;;;;;23.04;53.82;101361.13;5070663;28;20044;-67
2021/08/19 15:18:03;;;;;;;7.53;5.57;;;;;;;23.12;53.94;101376.13;5051959;28;20040;-67
2021/08/19 15:20:30;;;;;;;9.20;5.10;;;;;;;23.09;54.03;101374.66;5062463;28;20051;-67
2021/08/19 15:22:57;;;;;;;7.22;4.85;;;;;;;23.06;53.97;101380.34;5066578;28;20090;-67
2021/08/19 15:25:23;;;;;;;7.03;5.28;;;;;;;22.96;53.81;101361.22;5046612;28;20485;-68
2021/08/19 15:27:49;;;;;;;6.10;4.85;;;;;;;22.97;53.97;101367.38;5064461;28;20036;-68
2021/08/19 15:30:14;;;;;;;7.18;5.07;;;;;;;23.07;53.66;101381.19;5065676;28;20045;-68
2021/08/19 15:32:41;;;;;;;6.93;5.18;;;;;;;23.05;53.90;101375.22;5061351;28;20041;-67
2021/08/19 15:35:07;;;;;;;7.30;5.20;;;;;;;23.07;53.85;101378.53;5065968;28;20501;-67
2021/08/19 15:37:35;;;;;;;8.63;5.78;;;;;;;23.00;53.87;101377.63;5065270;28;20048;-67
2021/08/19 15:40:00;;;;;;;7.38;5.30;;;;;;;23.03;53.73;101385.22;5072063;28;20118;-68
2021/08/19 15:42:27;;;;;;;7.22;5.00;;;;;;;23.03;53.96;101380.75;5063150;28;20041;-67
2021/08/19 15:44:54;;;;;;;7.95;5.28;;;;;;;23.02;54.14;101378.28;5063881;28;20040;-67
2021/08/19 15:47:21;;;;;;;9.93;5.88;;;;;;;22.93;54.10;101366.91;5069511;28;20040;-68
2021/08/19 15:49:47;;;;;;;7.47;5.00;;;;;;;22.97;53.96;101384.13;5068410;28;20577;-68
2021/08/19 15:52:13;;;;;;;7.05;5.05;;;;;;;22.91;54.05;101358.31;5062500;28;20045;-67
2021/08/19 15:54:40;;;;;;;8.32;4.97;;;;;;;22.94;54.28;101375.72;5078093;28;20481;-67
2021/08/19 15:57:06;;;;;;;7.35;5.60;;;;;;;22.95;53.94;101383.50;5063900;28;20076;-68
2021/08/19 15:59:35;;;;;;;6.80;4.90;;;;;;;22.94;54.31;101381.03;5059657;28;20842;-67
2021/08/19 16:02:01;;;;;;;7.47;5.00;;;;;;;22.92;54.36;101379.38;5066400;28;20032;-68
2021/08/19 16:04:26;;;;;;;8.30;5.55;;;;;;;22.94;53.93;101381.03;5065407;28;20041;-67
2021/08/19 16:06:52;;;;;;;7.40;5.40;;;;;;;22.98;54.02;101376.97;5067080;28;20398;-67
2021/08/19 16:09:19;;;;;;;7.90;5.57;;;;;;;22.85;54.14;101367.88;5058830;28;20051;-67
2021/08/19 16:11:44;;;;;;;8.10;5.53;;;;;;;22.89;54.04;101369.13;5044834;28;20044;-67
2021/08/19 16:14:10;;;;;;;7.65;5.35;;;;;;;22.92;54.22;101373.25;5064500;28;20481;-67
2021/08/19 16:16:35;;;;;;;8.75;5.60;;;;;;;22.89;54.10;101378.94;5063586;28;20032;-67
2021/08/19 16:19:01;;;;;;;7.60;5.25;;;;;;;22.83;54.07;101369.91;5060414;28;20036;-68
2021/08/19 16:21:27;;;;;;;7.72;5.60;;;;;;;22.81;54.33;101371.88;5051784;28;20040;-67
2021/08/19 16:23:53;;;;;;;8.02;5.60;;;;;;;;;;5060356;28;20043;-67
2021/08/19 16:26:18;;;;;;;8.60;5.70;;;;;;;22.94;54.01;101383.69;5049922;28;20937;-67
2021/08/19 16:28:44;;;;;;;8.98;5.93;;;;;;;22.88;54.19;101383.44;5059097;28;20044;-67
2021/08/19 16:31:09;;;;;;;8.85;5.75;;;;;;;22.89;54.11;101387.72;5077603;28;20059;-67
2021/08/19 16:33:35;;;;;;;8.18;5.50;;;;;;;22.87;54.06;101391.59;5051085;28;20660;-67
2021/08/19 16:36:01;;;;;;;8.70;5.72;;;;;;;22.77;54.19;101372.41;5056140;28;20040;-67
2021/08/19 16:38:27;;;;;;;8.88;6.18;;;;;;;22.80;54.13;101382.66;5059226;28;20108;-68
2021/08/19 16:40:53;;;;;;;7.88;5.75;;;;;;;22.64;54.08;101349.22;5081476;28;20081;-67
2021/08/19 16:43:18;;;;;;;9.35;5.90;;;;;;;22.84;54.60;101382.16;5045702;28;20040;-68
2021/08/19 16:45:44;;;;;;;9.30;6.22;;;;;;;;;;5052343;28;20040;-68
2021/08/19 16:48:09;;;;;;;8.93;5.78;;;;;;;22.83;54.51;101388.47;5056939;28;20535;-68
2021/08/19 16:50:37;;;;;;;8.90;5.72;;;;;;;22.71;54.44;101371.34;5071165;28;20044;-67
2021/08/19 16:53:02;;;;;;;7.50;5.35;;;;;;;;;;5079465;28;20553;-67
2021/08/19 16:55:29;;;;;;;10.18;6.00;;;;;;;22.78;54.56;101371.41;5068081;28;20040;-67
2021/08/19 16:57:55;;;;;;;14.38;6.05;;;;;;;22.80;54.31;101385.31;5051133;28;20040;-68
2021/08/19 17:00:20;;;;;;;6.95;4.85;;;;;;;;;;5052220;28;20032;-67
2021/08/19 17:02:46;;;;;;;8.95;6.07;;;;;;;22.79;54.26;101378.38;5047155;28;20045;-68
2021/08/19 17:05:11;;;;;;;7.57;5.50;;;;;;;22.56;54.75;101341.34;5050147;28;20493;-67
2021/08/19 17:07:38;;;;;;;7.82;5.55;;;;;;;22.72;54.49;101372.16;5045822;28;20119;-67
2021/08/19 17:10:04;;;;;;;7.60;5.30;;;;;;;22.71;54.62;101379.31;5071868;28;20039;-67
2021/08/19 17:12:29;;;;;;;8.27;5.80;;;;;;;22.68;54.31;101373.53;5063425;28;20036;-67
2021/08/19 17:14:55;;;;;;;8.38;5.50;;;;;;;22.75;54.77;101385.88;5062345;28;20139;-68
2021/08/19 17:17:21;;;;;;;8.45;5.43;;;;;;;22.78;54.53;101379.38;5063403;28;20036;-67
2021/08/19 17:19:48;;;;;;;9.15;5.75;;;;;;;22.76;54.78;101376.09;5049067;28;20260;-68
2021/08/19 17:22:14;;;;;;;8.27;5.47;;;;;;;22.72;54.45;101375.63;5052000;28;20078;-67
2021/08/19 17:24:40;;;;;;;7.70;5.32;;;;;;;22.74;54.47;101378.09;5060144;28;20032;-67
2021/08/19 17:27:06;;;;;;;8.07;5.30;;;;;;;22.74;54.49;101378.09;5065708;28;20049;-67
2021/08/19 17:29:31;;;;;;;8.50;5.40;;;;;;;22.77;54.24;101375.91;5060686;28;20035;-67
2021/08/19 17:31:58;;;;;;;8.30;5.72;;;;;;;22.74;54.41;101370.97;5072881;28;20068;-68
2021/08/19 17:34:23;;;;;;;8.90;5.95;;;;;;;22.76;54.58;101376.91;5050651;28;20040;-67
2021/08/19 17:36:49;;;;;;;8.10;5.68;;;;;;;22.49;54.58;101333.31;5079559;28;20041;-67
2021/08/19 17:39:15;;;;;;;8.30;5.82;;;;;;;22.73;54.61;101377.28;5074300;28;20044;-67
2021/08/19 17:41:40;;;;;;;9.05;5.72;;;;;;;22.74;54.71;101368.31;5061437;28;20036;-67
2021/08/19 17:44:10;;;;;;;8.98;6.00;;;;;;;22.65;54.77;101360.66;5056414;28;20044;-67